createdAt,value
2018-02-01T00:01:48.071Z,19.30
2018-02-01T00:04:15.869Z,19.30
2018-02-01T00:06:43.657Z,19.40
2018-02-01T00:09:11.399Z,19.40
2018-02-01T00:11:39.187Z,19.30
2018-02-01T00:14:07.006Z,19.30
2018-02-01T00:16:34.848Z,19.30
2018-02-01T00:19:02.723Z,19.30
2018-02-01T00:21:30.545Z,19.30
2018-02-01T00:23:58.474Z,19.30
2018-02-01T00:26:26.205Z,19.20
2018-02-01T00:28:53.936Z,19.20
2018-02-01T00:31:21.735Z,19.10
2018-02-01T00:33:49.473Z,19.10
2018-02-01T00:36:18.198Z,19.00
2018-02-01T00:38:47.006Z,19.20
2018-02-01T00:41:14.742Z,19.60
2018-02-01T00:43:42.469Z,19.70
2018-02-01T00:46:10.992Z,19.30
2018-02-01T00:48:38.743Z,19.30
2018-02-01T00:51:06.566Z,19.50
2018-02-01T00:53:34.355Z,19.60
2018-02-01T00:56:02.097Z,19.50
2018-02-01T00:58:29.924Z,19.40
2018-02-01T01:00:57.692Z,19.80
2018-02-01T01:03:25.494Z,19.60
2018-02-01T01:05:53.279Z,19.40
2018-02-01T01:08:21.818Z,19.40
2018-02-01T01:10:49.563Z,19.30
2018-02-01T01:13:17.308Z,19.30
2018-02-01T01:15:45.137Z,19.30
2018-02-01T01:18:12.941Z,19.00
2018-02-01T01:20:40.733Z,18.90
2018-02-01T01:23:08.552Z,18.90
2018-02-01T01:25:36.358Z,18.90
2018-02-01T01:28:04.111Z,19.00
2018-02-01T01:30:32.861Z,19.40
2018-02-01T01:33:00.673Z,19.30
2018-02-01T01:35:28.489Z,19.20
2018-02-01T01:37:56.524Z,19.50
2018-02-01T01:40:24.252Z,19.60
2018-02-01T01:42:52.050Z,19.80
2018-02-01T01:45:19.798Z,19.70
2018-02-01T01:47:48.369Z,19.30
2018-02-01T01:50:16.182Z,19.30
2018-02-01T01:52:43.937Z,19.10
2018-02-01T01:55:12.430Z,19.10
2018-02-01T01:57:40.203Z,19.10
2018-02-01T02:00:08.152Z,19.20
2018-02-01T02:02:36.701Z,19.20
2018-02-01T02:05:04.508Z,19.20
2018-02-01T02:07:32.319Z,19.00
2018-02-01T02:10:00.108Z,18.90
2018-02-01T02:12:27.858Z,19.10
2018-02-01T02:14:55.652Z,19.30
2018-02-01T02:17:23.388Z,19.30
2018-02-01T02:19:51.161Z,19.30
2018-02-01T02:22:18.964Z,19.50
2018-02-01T02:24:47.528Z,19.40
2018-02-01T02:27:15.270Z,19.40
2018-02-01T02:29:43.056Z,19.50
2018-02-01T02:32:10.871Z,19.30
2018-02-01T02:34:38.746Z,19.40
2018-02-01T02:37:06.582Z,19.30
2018-02-01T02:39:35.173Z,19.00
2018-02-01T02:42:03.680Z,18.80
2018-02-01T02:44:31.516Z,18.70
2018-02-01T02:46:59.346Z,18.90
2018-02-01T02:49:27.095Z,18.90
2018-02-01T02:51:54.837Z,18.70
2018-02-01T02:54:22.877Z,18.60
2018-02-01T02:56:50.685Z,18.60
2018-02-01T02:59:18.485Z,18.60
2018-02-01T03:01:46.409Z,18.70
2018-02-01T03:04:14.161Z,18.60
2018-02-01T03:06:41.921Z,18.40
2018-02-01T03:09:09.740Z,18.40
2018-02-01T03:11:37.528Z,18.40
2018-02-01T03:14:06.093Z,18.50
2018-02-01T03:16:33.897Z,18.40
2018-02-01T03:19:01.704Z,18.40
2018-02-01T03:21:29.586Z,18.30
2018-02-01T03:23:58.430Z,18.30
2018-02-01T03:26:26.175Z,18.50
2018-02-01T03:28:53.994Z,18.40
2018-02-01T03:31:21.751Z,18.40
2018-02-01T03:33:49.471Z,18.50
2018-02-01T03:36:17.201Z,18.60
2018-02-01T03:38:45.006Z,18.50
2018-02-01T03:41:12.828Z,18.30
2018-02-01T03:43:41.347Z,17.90
2018-02-01T03:46:09.160Z,17.80
2018-02-01T03:48:36.980Z,17.80
2018-02-01T03:51:04.726Z,17.80
2018-02-01T03:53:32.522Z,17.70
2018-02-01T03:56:00.274Z,17.70
2018-02-01T03:58:28.058Z,17.70
2018-02-01T04:00:55.856Z,17.70
2018-02-01T04:03:23.600Z,17.70
2018-02-01T04:05:51.350Z,17.70
2018-02-01T04:08:19.077Z,17.70
2018-02-01T04:10:47.652Z,17.60
2018-02-01T04:13:15.452Z,17.60
2018-02-01T04:15:43.254Z,17.50
2018-02-01T04:18:11.041Z,17.50
2018-02-01T04:20:39.059Z,17.60
2018-02-01T04:23:06.883Z,17.70
2018-02-01T04:25:34.641Z,17.80
2018-02-01T04:28:02.433Z,17.80
2018-02-01T04:30:31.151Z,17.60
2018-02-01T04:32:58.951Z,17.50
2018-02-01T04:35:26.696Z,17.50
2018-02-01T04:37:54.510Z,17.40
2018-02-01T04:40:22.345Z,17.40
2018-02-01T04:42:50.920Z,17.40
2018-02-01T04:45:18.691Z,17.40
2018-02-01T04:47:46.507Z,17.40
2018-02-01T04:50:16.045Z,17.50
2018-02-01T04:52:43.782Z,17.50
2018-02-01T04:55:12.267Z,17.70
2018-02-01T04:57:40.105Z,17.60
2018-02-01T05:00:07.861Z,17.70
2018-02-01T05:02:35.616Z,17.50
2018-02-01T05:05:03.625Z,17.40
2018-02-01T05:07:31.386Z,17.30
2018-02-01T05:09:59.146Z,17.20
2018-02-01T05:12:26.900Z,17.20
2018-02-01T05:14:54.674Z,17.20
2018-02-01T05:17:24.664Z,17.20
2018-02-01T05:19:52.591Z,17.10
2018-02-01T05:22:21.205Z,17.10
2018-02-01T05:24:48.952Z,17.10
2018-02-01T05:27:16.690Z,17.20
2018-02-01T05:29:44.497Z,17.20
2018-02-01T05:32:12.335Z,17.20
2018-02-01T05:34:40.090Z,17.30
2018-02-01T05:37:07.942Z,17.40
2018-02-01T05:39:35.717Z,17.50
2018-02-01T05:42:03.506Z,17.90
2018-02-01T05:44:31.374Z,17.90
2018-02-01T05:46:59.254Z,18.00
2018-02-01T05:49:27.842Z,18.00
2018-02-01T05:51:55.580Z,18.00
2018-02-01T05:54:23.376Z,18.30
2018-02-01T05:56:51.345Z,18.20
2018-02-01T05:59:19.128Z,18.30
2018-02-01T06:01:47.090Z,18.30
2018-02-01T06:04:15.386Z,18.30
2018-02-01T06:06:43.152Z,18.30
2018-02-01T06:09:10.893Z,18.40
2018-02-01T06:11:38.762Z,18.40
2018-02-01T06:14:06.536Z,18.70
2018-02-01T06:16:34.342Z,19.30
2018-02-01T06:19:02.183Z,19.10
2018-02-01T06:21:29.941Z,19.00
2018-02-01T06:23:57.739Z,19.00
2018-02-01T06:26:25.556Z,19.20
2018-02-01T06:28:53.406Z,19.80
2018-02-01T06:31:21.252Z,19.80
2018-02-01T06:33:49.003Z,20.30
2018-02-01T06:36:16.847Z,20.10
2018-02-01T06:38:44.640Z,20.20
2018-02-01T06:41:12.398Z,20.50
2018-02-01T06:43:40.142Z,20.30
2018-02-01T06:46:07.873Z,20.00
2018-02-01T06:48:35.664Z,20.60
2018-02-01T06:51:03.467Z,20.60
2018-02-01T06:53:31.269Z,20.80
2018-02-01T06:55:59.089Z,20.90
2018-02-01T06:58:27.682Z,20.70
2018-02-01T07:00:56.470Z,20.60
2018-02-01T07:03:25.042Z,20.50
2018-02-01T07:05:52.878Z,20.50
2018-02-01T07:08:20.677Z,20.70
2018-02-01T07:10:49.195Z,20.30
2018-02-01T07:13:16.944Z,20.30
2018-02-01T07:15:44.704Z,20.10
2018-02-01T07:18:12.462Z,20.10
2018-02-01T07:20:43.007Z,20.10
2018-02-01T07:23:10.736Z,20.10
2018-02-01T07:25:38.480Z,20.10
2018-02-01T07:28:06.244Z,20.20
2018-02-01T07:30:34.032Z,20.30
2018-02-01T07:33:01.758Z,20.20
2018-02-01T07:35:29.719Z,20.20
2018-02-01T07:37:57.499Z,20.40
2018-02-01T07:40:25.280Z,21.20
2018-02-01T07:42:53.049Z,21.00
2018-02-01T07:45:21.385Z,20.90
2018-02-01T07:47:49.221Z,20.80
2018-02-01T07:50:17.026Z,20.60
2018-02-01T07:52:45.576Z,20.50
2018-02-01T07:55:13.320Z,20.40
2018-02-01T07:57:41.354Z,20.40
2018-02-01T08:00:09.131Z,20.30
2018-02-01T08:02:36.939Z,20.30
2018-02-01T08:05:04.790Z,20.50
2018-02-01T08:07:32.601Z,20.90
2018-02-01T08:10:01.167Z,20.70
2018-02-01T08:12:28.977Z,20.70
2018-02-01T08:14:56.773Z,20.70
2018-02-01T08:17:24.604Z,20.60
2018-02-01T08:19:53.177Z,20.60
2018-02-01T08:22:21.029Z,20.60
2018-02-01T08:24:48.845Z,20.60
2018-02-01T08:27:16.637Z,20.20
2018-02-01T08:29:44.438Z,20.20
2018-02-01T08:32:12.182Z,20.40
2018-02-01T08:34:39.973Z,20.60
2018-02-01T08:37:07.778Z,20.70
2018-02-01T08:39:35.545Z,20.40
2018-02-01T08:42:03.818Z,20.60
2018-02-01T08:44:31.609Z,20.50
2018-02-01T08:46:59.349Z,20.50
2018-02-01T08:49:27.113Z,20.40
2018-02-01T08:51:54.864Z,20.50
2018-02-01T08:54:23.441Z,20.80
2018-02-01T08:56:51.277Z,20.70
2018-02-01T08:59:19.069Z,21.10
2018-02-01T09:01:46.887Z,21.00
2018-02-01T09:04:15.093Z,21.10
2018-02-01T09:06:43.729Z,21.30
2018-02-01T09:09:11.468Z,21.40
2018-02-01T09:11:39.282Z,20.80
2018-02-01T09:14:07.012Z,21.00
2018-02-01T09:16:34.832Z,20.80
2018-02-01T09:19:02.622Z,21.00
2018-02-01T09:21:30.410Z,20.60
2018-02-01T09:23:58.188Z,20.90
2018-02-01T09:26:26.060Z,21.00
2018-02-01T09:28:54.585Z,20.80
2018-02-01T09:31:22.338Z,20.80
2018-02-01T09:33:50.126Z,20.60
2018-02-01T09:36:18.689Z,20.60
2018-02-01T09:38:46.435Z,20.50
2018-02-01T09:41:14.984Z,20.70
2018-02-01T09:43:42.720Z,20.60
2018-02-01T09:46:10.550Z,20.80
2018-02-01T09:48:38.348Z,20.60
2018-02-01T09:51:06.149Z,20.60
2018-02-01T09:53:33.961Z,20.50
2018-02-01T09:56:01.700Z,20.70
2018-02-01T09:58:29.625Z,20.80
2018-02-01T10:00:57.431Z,20.80
2018-02-01T10:03:25.212Z,20.80
2018-02-01T10:05:53.140Z,20.60
2018-02-01T10:08:20.861Z,20.70
2018-02-01T10:10:49.442Z,20.50
2018-02-01T10:13:17.285Z,20.50
2018-02-01T10:15:45.129Z,20.50
2018-02-01T10:18:12.952Z,20.40
2018-02-01T10:20:40.785Z,20.40
2018-02-01T10:23:08.552Z,20.20
2018-02-01T10:25:36.299Z,20.30
2018-02-01T10:28:04.398Z,20.20
2018-02-01T10:30:32.176Z,20.30
2018-02-01T10:32:59.925Z,20.30
2018-02-01T10:35:27.681Z,20.30
2018-02-01T10:37:55.530Z,20.30
2018-02-01T10:40:23.292Z,20.40
2018-02-01T10:42:51.101Z,20.30
2018-02-01T10:45:18.933Z,20.30
2018-02-01T10:47:46.669Z,20.40
2018-02-01T10:50:14.496Z,20.40
2018-02-01T10:52:42.230Z,20.60
2018-02-01T10:55:10.013Z,20.80
2018-02-01T10:57:37.837Z,20.90
2018-02-01T11:00:05.682Z,21.00
2018-02-01T11:02:33.476Z,20.90
2018-02-01T11:05:01.252Z,20.80
2018-02-01T11:07:29.065Z,21.00
2018-02-01T11:09:56.853Z,21.00
2018-02-01T11:12:25.426Z,21.30
2018-02-01T11:14:53.165Z,21.30
2018-02-01T11:17:20.966Z,21.20
2018-02-01T11:19:48.732Z,21.20
2018-02-01T11:22:16.551Z,21.20
2018-02-01T11:24:44.375Z,21.30
2018-02-01T11:27:12.188Z,21.60
2018-02-01T11:29:39.962Z,22.00
2018-02-01T11:32:07.751Z,22.30
2018-02-01T11:34:35.539Z,22.30
2018-02-01T11:37:03.288Z,22.40
2018-02-01T11:39:31.039Z,22.60
2018-02-01T11:41:58.805Z,22.70
2018-02-01T11:44:26.613Z,22.90
2018-02-01T11:46:54.401Z,22.90
2018-02-01T11:49:22.146Z,23.10
2018-02-01T11:51:50.760Z,23.10
2018-02-01T11:54:18.581Z,23.40
2018-02-01T11:56:46.333Z,23.10
2018-02-01T11:59:14.109Z,23.20
2018-02-01T12:01:41.925Z,23.30
2018-02-01T12:04:09.725Z,23.40
2018-02-01T12:06:37.458Z,23.50
2018-02-01T12:09:05.244Z,23.50
2018-02-01T12:11:32.985Z,23.60
2018-02-01T12:14:00.779Z,23.60
2018-02-01T12:16:28.584Z,23.40
2018-02-01T12:18:56.372Z,23.50
2018-02-01T12:21:24.170Z,23.40
2018-02-01T12:23:51.988Z,23.30
2018-02-01T12:26:19.808Z,23.40
2018-02-01T12:28:47.546Z,23.30
2018-02-01T12:31:16.143Z,23.30
2018-02-01T12:33:43.951Z,23.30
2018-02-01T12:36:11.694Z,23.20
2018-02-01T12:38:39.601Z,23.10
2018-02-01T12:41:07.348Z,23.10
2018-02-01T12:43:35.094Z,23.40
2018-02-01T12:46:02.849Z,23.70
2018-02-01T12:48:30.568Z,24.10
2018-02-01T12:50:58.323Z,23.90
2018-02-01T12:53:26.205Z,23.90
2018-02-01T12:55:54.002Z,23.90
2018-02-01T12:58:21.762Z,23.90
2018-02-01T13:00:51.815Z,23.90
2018-02-01T13:03:21.511Z,24.20
2018-02-01T13:05:50.346Z,24.10
2018-02-01T13:08:19.180Z,24.00
2018-02-01T13:10:48.140Z,23.90
2018-02-01T13:13:17.238Z,24.20
2018-02-01T13:15:45.619Z,24.20
2018-02-01T13:18:14.783Z,24.10
2018-02-01T13:20:44.279Z,24.30
2018-02-01T13:23:12.109Z,24.50
2018-02-01T13:25:41.812Z,24.30
2018-02-01T13:28:12.450Z,23.90
2018-02-01T13:30:41.109Z,23.80
2018-02-01T13:33:10.845Z,23.70
2018-02-01T13:35:39.251Z,24.10
2018-02-01T13:38:08.425Z,24.10
2018-02-01T13:40:36.744Z,24.10
2018-02-01T13:43:04.602Z,24.20
2018-02-01T13:45:32.349Z,24.10
2018-02-01T13:48:00.135Z,24.10
2018-02-01T13:50:27.961Z,23.90
2018-02-01T13:52:55.708Z,23.80
2018-02-01T13:55:23.514Z,23.90
2018-02-01T13:57:51.283Z,23.70
2018-02-01T14:00:19.049Z,23.60
2018-02-01T14:02:46.806Z,23.30
2018-02-01T14:05:14.616Z,23.30
2018-02-01T14:07:42.373Z,23.50
2018-02-01T14:10:10.132Z,23.60
2018-02-01T14:12:37.864Z,23.60
2018-02-01T14:15:05.657Z,23.70
2018-02-01T14:17:33.400Z,23.50
2018-02-01T14:20:01.193Z,23.20
2018-02-01T14:22:28.950Z,23.10
2018-02-01T14:24:56.683Z,23.30
2018-02-01T14:27:24.440Z,23.10
2018-02-01T14:29:52.186Z,23.20
2018-02-01T14:32:20.269Z,23.30
2018-02-01T14:34:48.055Z,23.20
2018-02-01T14:37:15.872Z,23.20
2018-02-01T14:39:43.629Z,23.40
2018-02-01T14:42:11.415Z,23.20
2018-02-01T14:44:39.159Z,23.20
2018-02-01T14:47:06.985Z,23.20
2018-02-01T14:49:34.793Z,23.10
2018-02-01T14:52:02.534Z,23.00
2018-02-01T14:54:30.265Z,23.00
2018-02-01T14:56:58.027Z,23.20
2018-02-01T14:59:25.836Z,23.10
2018-02-01T15:01:53.590Z,23.00
2018-02-01T15:04:21.455Z,22.90
2018-02-01T15:06:49.191Z,22.90
2018-02-01T15:09:17.758Z,23.00
2018-02-01T15:11:45.504Z,23.00
2018-02-01T15:14:13.257Z,23.10
2018-02-01T15:16:41.368Z,22.90
2018-02-01T15:19:09.094Z,23.00
2018-02-01T15:21:36.897Z,23.10
2018-02-01T15:24:04.779Z,22.90
2018-02-01T15:26:33.312Z,23.00
2018-02-01T15:29:01.124Z,22.90
2018-02-01T15:31:28.847Z,23.30
2018-02-01T15:33:56.645Z,23.40
2018-02-01T15:36:24.474Z,23.30
2018-02-01T15:38:52.243Z,23.50
2018-02-01T15:41:20.140Z,23.60
2018-02-01T15:43:48.813Z,23.50
2018-02-01T15:46:16.562Z,23.40
2018-02-01T15:48:44.509Z,23.20
2018-02-01T15:51:14.933Z,23.20
2018-02-01T15:53:44.156Z,23.10
2018-02-01T15:56:11.996Z,23.30
2018-02-01T15:58:39.810Z,23.30
2018-02-01T16:01:07.593Z,23.20
2018-02-01T16:03:35.410Z,23.20
2018-02-01T16:06:03.196Z,23.20
2018-02-01T16:08:30.988Z,23.30
2018-02-01T16:10:58.801Z,23.40
2018-02-01T16:13:28.034Z,23.40
2018-02-01T16:15:55.810Z,23.40
2018-02-01T16:18:23.557Z,23.60
2018-02-01T16:20:51.303Z,23.50
2018-02-01T16:23:19.139Z,23.40
2018-02-01T16:25:47.060Z,23.50
2018-02-01T16:28:14.813Z,23.50
2018-02-01T16:30:42.645Z,23.30
2018-02-01T16:33:10.388Z,23.30
2018-02-01T16:35:38.189Z,23.50
2018-02-01T16:38:05.995Z,23.40
2018-02-01T16:40:34.036Z,23.40
2018-02-01T16:43:03.350Z,23.40
2018-02-01T16:45:31.112Z,23.50
2018-02-01T16:47:58.845Z,23.60
2018-02-01T16:50:26.671Z,23.40
2018-02-01T16:52:54.407Z,23.50
2018-02-01T16:55:22.165Z,23.40
2018-02-01T16:57:50.058Z,23.40
2018-02-01T17:00:18.638Z,24.10
2018-02-01T17:02:46.434Z,24.10
2018-02-01T17:05:15.018Z,24.00
2018-02-01T17:07:43.396Z,24.00
2018-02-01T17:10:11.131Z,24.10
2018-02-01T17:12:38.943Z,24.10
2018-02-01T17:15:06.690Z,24.20
2018-02-01T17:17:34.427Z,24.10
2018-02-01T17:20:02.189Z,24.00
2018-02-01T17:22:38.028Z,23.90
2018-02-01T17:25:05.887Z,23.90
2018-02-01T17:27:33.683Z,23.60
2018-02-01T17:30:03.673Z,23.50
2018-02-01T17:32:31.581Z,23.30
2018-02-01T17:34:59.387Z,23.20
2018-02-01T17:37:27.244Z,23.00
2018-02-01T17:39:55.049Z,22.90
2018-02-01T17:42:22.788Z,22.90
2018-02-01T17:44:50.841Z,22.90
2018-02-01T17:47:18.630Z,22.70
2018-02-01T17:49:46.398Z,22.80
2018-02-01T17:52:14.931Z,22.90
2018-02-01T17:54:42.670Z,22.80
2018-02-01T17:57:10.714Z,22.70
2018-02-01T17:59:38.916Z,22.60
2018-02-01T18:02:06.745Z,22.60
2018-02-01T18:04:34.552Z,22.80
2018-02-01T18:07:02.389Z,22.80
2018-02-01T18:09:30.285Z,22.80
2018-02-01T18:12:05.287Z,22.80
2018-02-01T18:14:33.107Z,22.90
2018-02-01T18:17:14.437Z,22.90
2018-02-01T18:19:42.330Z,22.90
2018-02-01T18:22:10.132Z,23.10
2018-02-01T18:24:37.970Z,23.10
2018-02-01T18:27:06.501Z,23.00
2018-02-01T18:29:34.297Z,22.90
2018-02-01T18:32:02.117Z,22.80
2018-02-01T18:34:29.914Z,23.10
2018-02-01T18:36:58.415Z,22.90
2018-02-01T18:39:26.182Z,22.80
2018-02-01T18:41:54.008Z,22.90
2018-02-01T18:44:21.847Z,22.90
2018-02-01T18:46:50.284Z,23.00
2018-02-01T18:49:18.058Z,22.90
2018-02-01T18:51:46.591Z,22.90
2018-02-01T18:54:14.386Z,22.80
2018-02-01T18:56:43.639Z,22.80
2018-02-01T18:59:11.442Z,22.70
2018-02-01T19:01:39.342Z,22.90
2018-02-01T19:04:07.094Z,22.90
2018-02-01T19:06:34.928Z,22.80
2018-02-01T19:09:02.704Z,22.70
2018-02-01T19:11:30.433Z,22.80
2018-02-01T19:13:58.303Z,22.60
2018-02-01T19:16:26.065Z,22.50
2018-02-01T19:18:53.887Z,22.40
2018-02-01T19:21:21.630Z,22.40
2018-02-01T19:23:50.014Z,22.40
2018-02-01T19:26:19.379Z,22.40
2018-02-01T19:28:50.270Z,22.40
2018-02-01T19:31:20.781Z,22.40
2018-02-01T19:33:50.016Z,22.50
2018-02-01T19:36:20.021Z,22.40
2018-02-01T19:38:48.713Z,22.40
2018-02-01T19:41:19.149Z,22.30
2018-02-01T19:43:46.968Z,22.20
2018-02-01T19:46:14.778Z,22.10
2018-02-01T19:48:42.573Z,22.00
2018-02-01T19:51:10.338Z,22.00
2018-02-01T19:53:38.119Z,22.00
2018-02-01T19:56:06.293Z,22.00
2018-02-01T19:58:34.801Z,22.00
2018-02-01T20:01:04.347Z,22.00
2018-02-01T20:03:33.634Z,22.00
2018-02-01T20:06:01.387Z,22.00
2018-02-01T20:08:30.275Z,22.10
2018-02-01T20:10:58.791Z,22.10
2018-02-01T20:13:27.183Z,22.00
2018-02-01T20:15:56.607Z,22.00
2018-02-01T20:18:26.037Z,22.00
2018-02-01T20:20:55.864Z,22.00
2018-02-01T20:23:25.134Z,22.00
2018-02-01T20:25:54.508Z,22.20
2018-02-01T20:28:23.408Z,22.30
2018-02-01T20:30:53.362Z,22.20
2018-02-01T20:33:22.214Z,22.30
2018-02-01T20:35:52.041Z,22.10
2018-02-01T20:38:21.746Z,22.10
2018-02-01T20:40:51.038Z,22.10
2018-02-01T20:43:20.249Z,22.10
2018-02-01T20:45:48.406Z,22.10
2018-02-01T20:48:17.112Z,22.20
2018-02-01T20:50:44.951Z,22.30
2018-02-01T20:53:12.755Z,22.30
2018-02-01T20:55:40.615Z,22.40
2018-02-01T20:58:08.397Z,22.40
2018-02-01T21:00:37.435Z,22.50
2018-02-01T21:03:05.198Z,22.40
2018-02-01T21:08:06.991Z,22.50
2018-02-01T21:10:34.777Z,22.40
2018-02-01T21:13:02.532Z,22.30
2018-02-01T21:15:31.054Z,22.30
2018-02-01T21:17:58.784Z,22.30
2018-02-01T21:20:26.648Z,22.30
2018-02-01T21:22:54.403Z,22.30
2018-02-01T21:25:22.193Z,22.30
2018-02-01T21:27:50.279Z,22.30
2018-02-01T21:30:18.332Z,22.20
2018-02-01T21:32:46.134Z,22.20
2018-02-01T21:35:13.936Z,22.20
2018-02-01T21:37:41.750Z,22.20
2018-02-01T21:40:09.466Z,22.20
2018-02-01T21:42:37.217Z,22.30
2018-02-01T21:45:05.030Z,22.30
2018-02-01T21:47:32.834Z,22.30
2018-02-01T21:50:00.648Z,22.20
2018-02-01T21:52:28.422Z,22.30
2018-02-01T21:54:56.253Z,22.30
2018-02-01T21:57:24.039Z,22.30
2018-02-01T21:59:52.550Z,22.30
2018-02-01T22:02:20.303Z,22.30
2018-02-01T22:04:48.108Z,22.30
2018-02-01T22:07:16.136Z,22.10
2018-02-01T22:09:43.922Z,22.20
2018-02-01T22:12:11.733Z,22.10
2018-02-01T22:14:39.519Z,22.10
2018-02-01T22:17:08.055Z,22.00
2018-02-01T22:19:35.827Z,22.00
2018-02-01T22:22:03.580Z,22.00
2018-02-01T22:24:31.320Z,22.00
2018-02-01T22:26:59.143Z,22.00
2018-02-01T22:29:27.644Z,21.90
2018-02-01T22:31:55.434Z,21.90
2018-02-01T22:34:24.034Z,21.90
2018-02-01T22:36:51.773Z,21.90
2018-02-01T22:39:19.565Z,22.00
2018-02-01T22:41:47.385Z,22.00
2018-02-01T22:44:15.198Z,22.00
2018-02-01T22:46:43.000Z,21.30
2018-02-01T22:49:10.807Z,21.80
2018-02-01T22:51:38.611Z,21.90
2018-02-01T22:54:06.360Z,21.90
2018-02-01T22:56:34.111Z,22.00
2018-02-01T22:59:01.939Z,21.90
2018-02-01T23:01:29.721Z,21.80
2018-02-01T23:03:57.470Z,21.80
2018-02-01T23:06:25.279Z,21.70
2018-02-01T23:08:53.072Z,21.70
2018-02-01T23:11:20.834Z,21.70
2018-02-01T23:13:48.641Z,21.60
2018-02-01T23:16:16.370Z,21.50
2018-02-01T23:18:44.162Z,21.60
2018-02-01T23:21:11.980Z,21.50
2018-02-01T23:23:39.773Z,21.50
2018-02-01T23:26:07.570Z,21.40
2018-02-01T23:28:35.461Z,21.30
2018-02-01T23:31:03.236Z,21.30
2018-02-01T23:33:31.048Z,21.30
2018-02-01T23:35:58.778Z,21.20
2018-02-01T23:38:26.531Z,21.10
2018-02-01T23:40:54.318Z,21.10
2018-02-01T23:43:22.156Z,21.10
2018-02-01T23:45:49.895Z,21.10
2018-02-01T23:48:17.645Z,21.00
2018-02-01T23:50:45.548Z,21.00
2018-02-01T23:53:13.323Z,20.90
2018-02-01T23:55:41.065Z,21.00
2018-02-01T23:58:08.862Z,21.10
